Time;durP1;ratioP1;P1;durP2;ratioP2;P2;SDS_P1;SDS_P2;PMS_P1;PMS_P2;Temp;Humidity;BMP_temperature;BMP_pressure;BME280_temperature;BME280_humidity;BME280_pressure;Samples;Min_cycle;Max_cycle;Signal;HPM_P1;HPM_P2
2022/08/08 00:00:36;;;;;;;;;1.00;1.00;;;;;-146.67;100.00;57155.34;4981638;28;61963;-79
2022/08/08 00:03:17;;;;;;;;;1.00;1.00;;;;;-146.67;100.00;57155.34;4967977;28;62107;-78
2022/08/08 00:05:53;;;;;;;;;1.00;1.00;;;;;-146.67;100.00;57155.34;4985774;28;62145;-79
2022/08/08 00:08:28;;;;;;;;;0.50;0.50;;;;;-146.67;100.00;57155.34;4984295;28;62032;-79
2022/08/08 00:11:14;;;;;;;;;0.50;0.50;;;;;-146.67;100.00;57155.34;4984877;28;62940;-81
2022/08/08 00:13:41;;;;;;;;;3.25;1.00;;;;;-146.67;100.00;57155.34;4985565;28;61848;-81
2022/08/08 00:16:12;;;;;;;;;5.00;2.00;;;;;-146.67;100.00;57155.34;4984120;28;61957;-81
2022/08/08 00:18:53;;;;;;;;;2.00;2.00;;;;;-146.67;100.00;57155.34;4985176;28;61769;-81
2022/08/08 00:21:25;;;;;;;;;3.00;1.75;;;;;-146.67;100.00;57155.34;4983339;28;63886;-81
2022/08/08 00:23:58;;;;;;;;;3.00;2.00;;;;;-146.67;100.00;57155.34;4985110;28;61738;-81
2022/08/08 00:26:29;;;;;;;;;1.00;1.00;;;;;-146.67;100.00;57155.34;4996329;28;61741;-81
2022/08/08 00:29:11;;;;;;;;;1.25;1.00;;;;;-146.67;100.00;57155.34;5005047;28;61934;-81
2022/08/08 00:31:45;;;;;;;;;1.00;1.00;;;;;-146.67;100.00;57155.34;4986527;28;63925;-81
2022/08/08 00:37:31;;;;;;;;;2.50;2.00;;;;;-146.67;100.00;57155.34;5004715;28;61785;-81
2022/08/08 00:40:13;;;;;;;;;4.00;2.00;;;;;-146.67;100.00;57155.34;5004576;28;61901;-81
2022/08/08 00:42:51;;;;;;;;;0.00;0.00;;;;;-146.67;100.00;57155.34;5003906;28;62751;-81
2022/08/08 00:45:22;;;;;;;;;1.75;1.00;;;;;-146.67;100.00;57155.34;5003248;28;61816;-81
2022/08/08 00:48:14;;;;;;;;;5.25;2.00;;;;;-146.67;100.00;57155.34;5004414;28;61918;-81
2022/08/08 00:50:49;;;;;;;;;1.75;1.75;;;;;-146.67;100.00;57155.34;5003343;28;62050;-81
2022/08/08 00:53:50;;;;;;;;;1.25;1.25;;;;;-146.67;100.00;57155.34;5003596;28;61948;-81
2022/08/08 00:56:18;;;;;;;;;2.25;1.75;;;;;-146.67;100.00;57155.34;4946374;28;62084;-81
2022/08/08 00:58:58;;;;;;;;;2.25;2.00;;;;;-146.67;100.00;57155.34;4946646;28;61940;-81
2022/08/08 01:01:31;;;;;;;;;2.75;1.75;;;;;-146.67;100.00;57155.34;4962747;28;61796;-81
2022/08/08 01:04:27;;;;;;;;;2.00;2.00;;;;;-146.67;100.00;57155.34;4962194;28;62261;-81
2022/08/08 01:07:16;;;;;;;;;2.00;2.00;;;;;-146.67;100.00;57155.34;4962762;28;61870;-81
2022/08/08 01:10:05;;;;;;;;;2.00;1.75;;;;;-146.67;100.00;57155.34;4946555;28;61988;-81
2022/08/08 01:12:46;;;;;;;;;2.00;2.00;;;;;-146.67;100.00;57155.34;4945907;28;62045;-81
2022/08/08 01:15:26;;;;;;;;;2.75;2.00;;;;;-146.67;100.00;57155.34;4962090;28;62172;-81
2022/08/08 01:18:08;;;;;;;;;2.25;1.50;;;;;-146.67;100.00;57155.34;4962452;28;61994;-81
2022/08/08 01:20:56;;;;;;;;;2.75;2.50;;;;;-146.67;100.00;57155.34;4962408;28;62040;-81
2022/08/08 01:23:34;;;;;;;;;1.50;1.50;;;;;-146.67;100.00;57155.34;4962156;28;62157;-81
2022/08/08 01:26:05;;;;;;;;;2.00;2.00;;;;;-146.67;100.00;57155.34;4961461;28;62144;-81
2022/08/08 01:28:45;;;;;;;;;1.75;1.50;;;;;-146.67;100.00;57155.34;4962322;28;62113;-81
2022/08/08 01:31:36;;;;;;;;;2.00;2.00;;;;;-146.67;100.00;57155.34;4998447;28;61999;-81
2022/08/08 01:34:25;;;;;;;;;1.00;1.00;;;;;-146.67;100.00;57155.34;5002641;28;62106;-81
2022/08/08 01:37:09;;;;;;;;;3.00;1.75;;;;;-146.67;100.00;57155.34;5003465;28;61865;-81
2022/08/08 01:39:57;;;;;;;;;2.00;2.00;;;;;-146.67;100.00;57155.34;5002457;28;62007;-81
2022/08/08 01:42:50;;;;;;;;;4.75;2.75;;;;;-146.67;100.00;57155.34;5003990;28;61793;-81
2022/08/08 01:45:46;;;;;;;;;3.00;3.00;;;;;-146.67;100.00;57155.34;4962005;28;61871;-81
2022/08/08 01:48:51;;;;;;;;;3.50;3.00;;;;;-146.67;100.00;57155.34;4961578;28;62032;-81
2022/08/08 01:51:19;;;;;;;;;3.00;2.00;;;;;-146.67;100.00;57155.34;4960961;28;61989;-81
2022/08/08 01:53:56;;;;;;;;;2.25;2.25;;;;;-146.67;100.00;57155.34;4945503;28;61886;-81
2022/08/08 01:56:41;;;;;;;;;2.00;1.00;;;;;-146.67;100.00;57155.34;4962196;28;61921;-81
2022/08/08 01:59:18;;;;;;;;;3.75;2.75;;;;;-146.67;100.00;57155.34;4945076;28;63725;-80
2022/08/08 02:02:10;;;;;;;;;1.75;1.75;;;;;-146.67;100.00;57155.34;4945564;28;61964;-81
2022/08/08 02:05:13;;;;;;;;;2.00;1.00;;;;;-146.67;100.00;57155.34;4961704;28;61794;-81
2022/08/08 02:08:03;;;;;;;;;4.00;3.00;;;;;-146.67;100.00;57155.34;4961824;28;61978;-81
2022/08/08 02:10:41;;;;;;;;;1.75;1.75;;;;;-146.67;100.00;57155.34;4944778;28;65153;-81
2022/08/08 02:13:34;;;;;;;;;4.75;2.75;;;;;-146.67;100.00;57155.34;4961582;28;61843;-81
2022/08/08 02:16:17;;;;;;;;;2.75;1.50;;;;;-146.67;100.00;57155.34;4945289;28;62555;-81
2022/08/08 02:18:52;;;;;;;;;2.00;2.00;;;;;-146.67;100.00;57155.34;4961556;28;61830;-81
2022/08/08 02:24:49;;;;;;;;;3.00;2.00;;;;;-146.67;100.00;57155.34;5002501;28;61984;-81
2022/08/08 02:27:25;;;;;;;;;7.00;3.00;;;;;-146.67;100.00;57155.34;5002512;28;61785;-81
2022/08/08 02:30:13;;;;;;;;;1.25;1.25;;;;;-146.67;100.00;57155.34;5001730;28;61964;-81
2022/08/08 02:33:20;;;;;;;;;1.75;1.75;;;;;-146.67;100.00;57155.34;5002382;28;62883;-81
2022/08/08 02:36:12;;;;;;;;;4.50;3.00;;;;;-146.67;100.00;57155.34;4944723;28;62122;-80
2022/08/08 02:38:58;;;;;;;;;2.00;2.00;;;;;-146.67;100.00;57155.34;4961304;28;61936;-81
2022/08/08 02:41:51;;;;;;;;;1.75;1.75;;;;;-146.67;100.00;57155.34;4961286;28;61896;-81
2022/08/08 02:44:42;;;;;;;;;1.25;1.25;;;;;-146.67;100.00;57155.34;4960566;28;62112;-81
2022/08/08 02:47:29;;;;;;;;;5.25;3.00;;;;;-146.67;100.00;57155.34;4954469;28;61990;-81
2022/08/08 02:50:34;;;;;;;;;1.50;1.25;;;;;-146.67;100.00;57155.34;4944856;28;61947;-81
2022/08/08 02:53:50;;;;;;;;;4.75;3.00;;;;;-146.67;100.00;57155.34;4944941;28;61819;-81
2022/08/08 02:56:46;;;;;;;;;2.00;2.00;;;;;-146.67;100.00;57155.34;4956392;28;63361;-81
2022/08/08 02:59:12;;;;;;;;;3.25;2.00;;;;;-146.67;100.00;57155.34;4944724;28;61887;-80
2022/08/08 03:02:03;;;;;;;;;2.25;2.25;;;;;-146.67;100.00;57155.34;4944755;28;61907;-81
2022/08/08 03:04:44;;;;;;;;;3.25;2.75;;;;;-146.67;100.00;57155.34;4953424;28;62188;-81
2022/08/08 03:07:35;;;;;;;;;4.00;3.00;;;;;-146.67;100.00;57155.34;4944024;28;64028;-81
2022/08/08 03:10:37;;;;;;;;;2.50;2.50;;;;;-146.67;100.00;57155.34;4960741;28;62148;-81
2022/08/08 03:13:16;;;;;;;;;1.75;1.75;;;;;-146.67;100.00;57155.34;4985422;28;62281;-81
2022/08/08 03:15:44;;;;;;;;;3.00;3.00;;;;;-146.67;100.00;57155.34;5001270;28;61724;-81
2022/08/08 03:18:51;;;;;;;;;4.00;2.25;;;;;-146.67;100.00;57155.34;5000718;28;63816;-81
2022/08/08 03:21:16;;;;;;;;;2.75;2.75;;;;;-146.67;100.00;57155.34;4960808;28;61909;-81
2022/08/08 03:23:42;;;;;;;;;2.25;1.75;;;;;-146.67;100.00;57155.34;4960620;28;61910;-79
2022/08/08 03:26:08;;;;;;;;;2.75;2.00;;;;;-146.67;100.00;57155.34;4944684;28;61910;-79
2022/08/08 03:28:58;;;;;;;;;4.75;2.50;;;;;-146.67;100.00;57155.34;4960288;28;61858;-79
2022/08/08 03:34:12;;;;;;;;;4.25;3.00;;;;;-146.67;100.00;57155.34;4960830;28;62076;-79
2022/08/08 03:36:41;;;;;;;;;7.50;4.00;;;;;-146.67;100.00;57155.34;4946010;28;61888;-78
2022/08/08 03:39:10;;;;;;;;;6.75;4.00;;;;;-146.67;100.00;57155.34;4963673;28;61962;-78
2022/08/08 03:41:35;;;;;;;;;5.00;5.00;;;;;-146.67;100.00;57155.34;4963855;28;61901;-78
2022/08/08 03:44:01;;;;;;;;;3.00;2.00;;;;;-146.67;100.00;57155.34;4963814;28;61969;-78
2022/08/08 03:46:26;;;;;;;;;3.00;3.00;;;;;-146.67;100.00;57155.34;4964105;28;62323;-78
2022/08/08 03:49:00;;;;;;;;;5.25;4.00;;;;;-146.67;100.00;57155.34;4963188;28;63416;-79
2022/08/08 03:51:26;;;;;;;;;3.50;3.50;;;;;-146.67;100.00;57155.34;4974718;28;61845;-79
2022/08/08 03:53:53;;;;;;;;;3.00;3.00;;;;;-146.67;100.00;57155.34;5005087;28;61782;-78
2022/08/08 03:56:19;;;;;;;;;3.75;3.25;;;;;-146.67;100.00;57155.34;4987767;28;62195;-79
2022/08/08 03:58:49;;;;;;;;;5.25;4.00;;;;;-146.67;100.00;57155.34;5004715;28;62855;-79
2022/08/08 04:01:16;;;;;;;;;2.75;2.50;;;;;-146.67;100.00;57155.34;5003946;28;61825;-79
2022/08/08 04:03:46;;;;;;;;;5.50;4.00;;;;;-146.67;100.00;57155.34;5004133;28;61926;-79
2022/08/08 04:06:13;;;;;;;;;2.25;2.25;;;;;-146.67;100.00;57155.34;5004131;28;61861;-79
2022/08/08 04:08:38;;;;;;;;;6.00;3.00;;;;;-146.67;100.00;57155.34;5004763;28;62833;-79
2022/08/08 04:11:05;;;;;;;;;4.25;4.00;;;;;-146.67;100.00;57155.34;5003574;28;61817;-79
2022/08/08 04:13:31;;;;;;;;;5.25;4.00;;;;;-146.67;100.00;57155.34;5005398;28;61770;-78
2022/08/08 04:15:57;;;;;;;;;3.75;3.50;;;;;-146.67;100.00;57155.34;5005303;28;62142;-78
2022/08/08 04:18:23;;;;;;;;;3.00;3.00;;;;;-146.67;100.00;57155.34;5004727;28;62751;-79
2022/08/08 04:20:48;;;;;;;;;5.00;4.00;;;;;-146.67;100.00;57155.34;5003607;28;61953;-79
2022/08/08 04:23:14;;;;;;;;;4.50;3.25;;;;;-146.67;100.00;57155.34;5003565;28;61678;-78
2022/08/08 04:25:40;;;;;;;;;6.50;4.00;;;;;-146.67;100.00;57155.34;5004694;28;62018;-78
2022/08/08 04:28:06;;;;;;;;;3.75;3.00;;;;;-146.67;100.00;57155.34;5002893;28;65306;-79
2022/08/08 04:30:31;;;;;;;;;4.50;3.25;;;;;-146.67;100.00;57155.34;5004880;28;61791;-79
2022/08/08 04:32:57;;;;;;;;;5.50;5.00;;;;;-146.67;100.00;57155.34;5003407;28;61849;-78
2022/08/08 04:35:22;;;;;;;;;4.25;2.00;;;;;-146.67;100.00;57155.34;5003875;28;61746;-79
2022/08/08 04:37:49;;;;;;;;;2.75;2.75;;;;;-146.67;100.00;57155.34;4986366;28;63939;-81
2022/08/08 04:40:14;;;;;;;;;6.00;3.75;;;;;-146.67;100.00;57155.34;5004517;28;61763;-81
2022/08/08 04:42:39;;;;;;;;;3.00;3.00;;;;;-146.67;100.00;57155.34;5003272;28;61817;-80
2022/08/08 04:45:06;;;;;;;;;3.75;3.75;;;;;-146.67;100.00;57155.34;4987140;28;61777;-81
2022/08/08 04:47:32;;;;;;;;;4.00;4.00;;;;;-146.67;100.00;57155.34;5003283;28;62236;-81
2022/08/08 04:49:58;;;;;;;;;4.00;3.00;;;;;-146.67;100.00;57155.34;5002901;28;62235;-81
2022/08/08 04:52:23;;;;;;;;;8.25;5.00;;;;;-146.67;100.00;57155.34;5002625;28;61911;-83
2022/08/08 04:54:49;;;;;;;;;3.50;3.50;;;;;-146.67;100.00;57155.34;5004602;28;62121;-82
2022/08/08 04:57:14;;;;;;;;;3.25;3.25;;;;;-146.67;100.00;57155.34;5003817;28;62965;-82
2022/08/08 04:59:40;;;;;;;;;5.00;5.00;;;;;-146.67;100.00;57155.34;5004600;28;61967;-79
2022/08/08 05:02:06;;;;;;;;;3.50;3.50;;;;;-146.67;100.00;57155.34;5004699;28;61805;-80
2022/08/08 05:04:32;;;;;;;;;3.00;3.00;;;;;-146.67;100.00;57155.34;5004596;28;61895;-80
2022/08/08 05:06:58;;;;;;;;;3.50;3.50;;;;;-146.67;100.00;57155.34;5002328;28;64088;-80
2022/08/08 05:09:23;;;;;;;;;4.00;3.00;;;;;-146.67;100.00;57155.34;5004124;28;61759;-80
2022/08/08 05:11:49;;;;;;;;;3.25;3.25;;;;;-146.67;100.00;57155.34;5004410;28;61894;-80
2022/08/08 05:14:15;;;;;;;;;5.50;4.50;;;;;-146.67;100.00;57155.34;5004638;28;61695;-80
2022/08/08 05:16:41;;;;;;;;;6.50;4.00;;;;;-146.67;100.00;57155.34;5002281;28;64824;-80
2022/08/08 05:19:11;;;;;;;;;4.75;3.75;;;;;-146.67;100.00;57155.34;4986316;28;62073;-80
2022/08/08 05:21:41;;;;;;;;;3.00;3.00;;;;;-146.67;100.00;57155.34;5002997;28;61834;-81
2022/08/08 05:24:07;;;;;;;;;6.25;4.00;;;;;-146.67;100.00;57155.34;5003849;28;62000;-80
2022/08/08 05:26:34;;;;;;;;;4.00;4.00;;;;;-146.67;100.00;57155.34;5001950;28;64792;-83
2022/08/08 05:29:02;;;;;;;;;5.75;5.75;;;;;-146.67;100.00;57155.34;4986168;28;61881;-81
2022/08/08 05:31:27;;;;;;;;;3.75;3.75;;;;;-146.67;100.00;57155.34;5004100;28;61990;-80
2022/08/08 05:33:53;;;;;;;;;3.75;3.75;;;;;-146.67;100.00;57155.34;5002909;28;61830;-80
2022/08/08 05:36:24;;;;;;;;;6.00;4.00;;;;;-146.67;100.00;57155.34;4995653;28;63428;-81
2022/08/08 05:38:55;;;;;;;;;4.25;4.00;;;;;-146.67;100.00;57155.34;5000961;28;61958;-80
2022/08/08 05:41:25;;;;;;;;;4.00;3.00;;;;;-146.67;100.00;57155.34;5003824;28;62519;-80
2022/08/08 05:44:02;;;;;;;;;5.25;3.75;;;;;-146.67;100.00;57155.34;4997272;28;61996;-80
2022/08/08 05:46:28;;;;;;;;;4.25;3.25;;;;;-146.67;100.00;57155.34;5001283;28;62889;-80
2022/08/08 05:49:00;;;;;;;;;3.75;3.75;;;;;-146.67;100.00;57155.34;4985757;28;61949;-80
2022/08/08 05:51:29;;;;;;;;;3.25;2.00;;;;;-146.67;100.00;57155.34;5001791;28;62012;-80
2022/08/08 05:53:58;;;;;;;;;7.50;5.50;;;;;-146.67;100.00;57155.34;5002140;28;61968;-80
2022/08/08 05:56:26;;;;;;;;;3.00;3.00;;;;;-146.67;100.00;57155.34;5001689;28;64261;-80
2022/08/08 05:59:04;;;;;;;;;3.50;3.50;;;;;-146.67;100.00;57155.34;5001937;28;61969;-80
2022/08/08 06:01:30;;;;;;;;;7.00;5.50;;;;;-146.67;100.00;57155.34;5001947;28;61758;-80
2022/08/08 06:04:01;;;;;;;;;5.50;4.00;;;;;-146.67;100.00;57155.34;5003756;28;61761;-80
2022/08/08 06:06:29;;;;;;;;;6.00;5.00;;;;;-146.67;100.00;57155.34;5002812;28;61834;-79
2022/08/08 06:08:59;;;;;;;;;6.00;5.00;;;;;-146.67;100.00;57155.34;5003205;28;61937;-80
2022/08/08 06:11:26;;;;;;;;;7.75;4.00;;;;;-146.67;100.00;57155.34;5001665;28;61856;-80
2022/08/08 06:13:55;;;;;;;;;4.25;2.00;;;;;-146.67;100.00;57155.34;5002083;28;61835;-80
2022/08/08 06:16:20;;;;;;;;;5.75;4.50;;;;;-146.67;100.00;57155.34;4984736;28;63845;-80
2022/08/08 06:18:46;;;;;;;;;6.25;4.00;;;;;-146.67;100.00;57155.34;5003311;28;61972;-81
2022/08/08 06:21:14;;;;;;;;;6.00;3.00;;;;;-146.67;100.00;57155.34;5003150;28;61885;-81
2022/08/08 06:23:39;;;;;;;;;5.00;4.25;;;;;-146.67;100.00;57155.34;5001716;28;61774;-78
2022/08/08 06:26:09;;;;;;;;;9.00;5.50;;;;;-146.67;100.00;57155.34;5001801;28;63049;-78
2022/08/08 06:29:01;;;;;;;;;6.25;4.50;;;;;-146.67;100.00;57155.34;4995328;28;61815;-82
2022/08/08 06:31:33;;;;;;;;;6.00;5.00;;;;;-146.67;100.00;57155.34;5001528;28;62019;-79
2022/08/08 06:34:11;;;;;;;;;5.75;5.75;;;;;-146.67;100.00;57155.34;5003035;28;62169;-77
2022/08/08 06:36:41;;;;;;;;;7.00;6.50;;;;;-146.67;100.00;57155.34;5001776;28;61771;-76
2022/08/08 06:39:10;;;;;;;;;4.00;4.00;;;;;-146.67;100.00;57155.34;5002226;28;62149;-78
2022/08/08 06:41:44;;;;;;;;;5.50;4.25;;;;;-146.67;100.00;57155.34;4994163;28;61985;-78
2022/08/08 06:44:13;;;;;;;;;5.50;4.50;;;;;-146.67;100.00;57155.34;4981494;28;61917;-78
2022/08/08 06:46:39;;;;;;;;;4.50;4.50;;;;;-146.67;100.00;57155.34;4979646;28;64015;-80
2022/08/08 06:49:05;;;;;;;;;6.00;4.50;;;;;-146.67;100.00;57155.34;4981637;28;61736;-80
2022/08/08 06:51:30;;;;;;;;;4.50;4.50;;;;;-146.67;100.00;57155.34;4981566;28;62143;-82
2022/08/08 06:53:58;;;;;;;;;6.25;6.25;;;;;-146.67;100.00;57155.34;4983854;28;62185;-82
2022/08/08 06:56:24;;;;;;;;;5.25;4.00;;;;;-146.67;100.00;57155.34;4980660;28;64099;-82
2022/08/08 06:58:49;;;;;;;;;6.00;4.00;;;;;-146.67;100.00;57155.34;4982626;28;61794;-81
2022/08/08 07:01:16;;;;;;;;;6.25;5.00;;;;;-146.67;100.00;57155.34;4981320;28;61786;-80
2022/08/08 07:04:08;;;;;;;;;6.00;5.75;;;;;-146.67;100.00;57155.34;4981642;28;62178;-79
2022/08/08 07:06:40;;;;;;;;;4.33;4.00;;;;;-146.67;100.00;57155.34;4982519;28;63272;-80
2022/08/08 07:09:13;;;;;;;;;5.00;4.00;;;;;-146.67;100.00;57155.34;4980685;28;62035;-80
2022/08/08 07:11:49;;;;;;;;;4.00;4.00;;;;;-146.67;100.00;57155.34;4986022;28;62010;-80
2022/08/08 07:14:25;;;;;;;;;4.50;4.50;;;;;-146.67;100.00;57155.34;4989436;28;61943;-79
2022/08/08 07:17:04;;;;;;;;;3.50;3.50;;;;;-146.67;100.00;57155.34;4987329;28;63741;-79
2022/08/08 07:19:40;;;;;;;;;8.75;5.00;;;;;-146.67;100.00;57155.34;4987466;28;61824;-79
2022/08/08 07:22:06;;;;;;;;;3.00;3.00;;;;;-146.67;100.00;57155.34;4987674;28;61850;-79
2022/08/08 07:24:43;;;;;;;;;5.00;5.00;;;;;-146.67;100.00;57155.34;4987834;28;61893;-80
2022/08/08 07:27:17;;;;;;;;;6.00;5.00;;;;;-146.67;100.00;57155.34;5001067;28;64005;-79
2022/08/08 07:29:44;;;;;;;;;3.75;3.75;;;;;-146.67;100.00;57155.34;4989159;28;61905;-79
2022/08/08 07:32:11;;;;;;;;;7.75;4.00;;;;;-146.67;100.00;57155.34;4987779;28;61991;-79
2022/08/08 07:34:36;;;;;;;;;4.50;3.50;;;;;-146.67;100.00;57155.34;4988959;28;61967;-80
2022/08/08 07:37:04;;;;;;;;;3.00;3.00;;;;;-146.67;100.00;57155.34;4987233;28;63496;-80
2022/08/08 07:39:30;;;;;;;;;6.25;4.00;;;;;-146.67;100.00;57155.34;4971028;28;61858;-79
2022/08/08 07:41:57;;;;;;;;;4.50;3.25;;;;;-146.67;100.00;57155.34;4987515;28;61849;-79
2022/08/08 07:44:24;;;;;;;;;7.25;4.50;;;;;-146.67;100.00;57155.34;4989135;28;61781;-79
2022/08/08 07:46:49;;;;;;;;;4.75;4.00;;;;;-146.67;100.00;57155.34;4986830;28;65055;-79
2022/08/08 07:49:15;;;;;;;;;3.50;2.75;;;;;-146.67;100.00;57155.34;4987267;28;61836;-79
2022/08/08 07:51:42;;;;;;;;;4.00;4.00;;;;;-146.67;100.00;57155.34;4989064;28;61946;-79
2022/08/08 07:54:30;;;;;;;;;3.50;3.25;;;;;-146.67;100.00;57155.34;4989059;28;61898;-80
2022/08/08 07:57:23;;;;;;;;;5.25;3.00;;;;;-146.67;100.00;57155.34;4986682;28;63615;-80
2022/08/08 08:00:08;;;;;;;;;4.50;3.50;;;;;-146.67;100.00;57155.34;4987277;28;61818;-80
2022/08/08 08:03:00;;;;;;;;;5.50;3.75;;;;;-146.67;100.00;57155.34;4988260;28;61719;-80
2022/08/08 08:05:28;;;;;;;;;4.75;3.50;;;;;-146.67;100.00;57155.34;4987155;28;62188;-79
2022/08/08 08:08:02;;;;;;;;;3.50;3.00;;;;;-146.67;100.00;57155.34;4986877;28;65058;-80
2022/08/08 08:10:29;;;;;;;;;3.75;3.25;;;;;-146.67;100.00;57155.34;4988343;28;61795;-80
2022/08/08 08:13:22;;;;;;;;;3.00;1.50;;;;;-146.67;100.00;57155.34;4987453;28;61814;-80
2022/08/08 08:15:59;;;;;;;;;3.00;2.75;;;;;-146.67;100.00;57155.34;4987347;28;62344;-79
2022/08/08 08:18:30;;;;;;;;;8.25;3.50;;;;;-146.67;100.00;57155.34;4986445;28;63652;-80
2022/08/08 08:20:55;;;;;;;;;3.00;3.00;;;;;-146.67;100.00;57155.34;4988497;28;61830;-80
2022/08/08 08:23:21;;;;;;;;;9.50;4.50;;;;;-146.67;100.00;57155.34;4984406;28;61815;-80
2022/08/08 08:25:46;;;;;;;;;2.25;2.25;;;;;-146.67;100.00;57155.34;4990211;28;61994;-79
2022/08/08 08:28:12;;;;;;;;;4.00;3.50;;;;;-146.67;100.00;57155.34;5004659;28;61864;-80
2022/08/08 08:30:38;;;;;;;;;4.50;3.00;;;;;-146.67;100.00;57155.34;4986980;28;61936;-79
2022/08/08 08:33:03;;;;;;;;;4.50;3.50;;;;;-146.67;100.00;57155.34;5003552;28;61891;-80
2022/08/08 08:35:29;;;;;;;;;5.25;4.00;;;;;-146.67;100.00;57155.34;5004869;28;61883;-80
2022/08/08 08:37:54;;;;;;;;;4.00;2.50;;;;;-146.67;100.00;57155.34;5002910;28;64483;-80
2022/08/08 08:40:20;;;;;;;;;4.25;4.25;;;;;-146.67;100.00;57155.34;5004652;28;61945;-80
2022/08/08 08:42:47;;;;;;;;;7.00;4.00;;;;;-146.67;100.00;57155.34;5004881;28;61999;-80
2022/08/08 08:45:13;;;;;;;;;7.50;4.00;;;;;-146.67;100.00;57155.34;5003245;28;62002;-80
2022/08/08 08:47:42;;;;;;;;;3.00;3.00;;;;;-146.67;100.00;57155.34;5002572;28;64902;-80
2022/08/08 08:50:08;;;;;;;;;5.00;5.00;;;;;-146.67;100.00;57155.34;5004696;28;61840;-80
2022/08/08 08:52:39;;;;;;;;;4.50;3.50;;;;;-146.67;100.00;57155.34;5002848;28;61808;-80
2022/08/08 08:55:05;;;;;;;;;4.00;3.00;;;;;-146.67;100.00;57155.34;5004838;28;61811;-81
2022/08/08 08:57:32;;;;;;;;;3.00;3.00;;;;;-146.67;100.00;57155.34;4985675;28;63115;-81
2022/08/08 08:59:59;;;;;;;;;3.00;2.00;;;;;-146.67;100.00;57155.34;4986393;28;61942;-80
2022/08/08 09:02:25;;;;;;;;;4.50;2.75;;;;;-146.67;100.00;57155.34;5003040;28;61897;-80
2022/08/08 09:04:55;;;;;;;;;5.25;3.00;;;;;-146.67;100.00;57155.34;5003260;28;62197;-80
2022/08/08 09:07:23;;;;;;;;;5.25;3.75;;;;;-146.67;100.00;57155.34;4985878;28;64870;-80
2022/08/08 09:09:52;;;;;;;;;5.00;4.50;;;;;-146.67;100.00;57155.34;5002671;28;62007;-80
2022/08/08 09:12:21;;;;;;;;;4.50;4.00;;;;;-146.67;100.00;57155.34;5002850;28;61944;-80
2022/08/08 09:14:50;;;;;;;;;4.00;2.75;;;;;-146.67;100.00;57155.34;5002915;28;62242;-80
2022/08/08 09:17:17;;;;;;;;;7.75;3.50;;;;;-146.67;100.00;57155.34;5003514;28;62109;-80
2022/08/08 09:19:43;;;;;;;;;4.00;2.25;;;;;-146.67;100.00;57155.34;5003924;28;61839;-80
2022/08/08 09:22:10;;;;;;;;;7.25;5.25;;;;;-146.67;100.00;57155.34;4986178;28;61974;-79
2022/08/08 09:24:37;;;;;;;;;2.25;2.25;;;;;-146.67;100.00;57155.34;5002102;28;61833;-80
2022/08/08 09:27:07;;;;;;;;;4.25;3.00;;;;;-146.67;100.00;57155.34;5002934;28;61883;-80
2022/08/08 09:30:01;;;;;;;;;2.00;2.00;;;;;-146.67;100.00;57155.34;4985842;28;62251;-80
2022/08/08 09:32:29;;;;;;;;;3.50;3.50;;;;;-146.67;100.00;57155.34;4986096;28;61916;-80
2022/08/08 09:34:59;;;;;;;;;2.75;2.00;;;;;-146.67;100.00;57155.34;5002273;28;61949;-80
2022/08/08 09:37:31;;;;;;;;;3.75;3.75;;;;;-146.67;100.00;57155.34;4985434;28;64096;-80
2022/08/08 09:40:01;;;;;;;;;3.00;3.00;;;;;-146.67;100.00;57155.34;5002366;28;61979;-81
2022/08/08 09:42:36;;;;;;;;;2.50;2.50;;;;;-146.67;100.00;57155.34;5003870;28;61796;-80
2022/08/08 09:45:06;;;;;;;;;4.00;2.75;;;;;-146.67;100.00;57155.34;5003587;28;61825;-80
2022/08/08 09:47:33;;;;;;;;;4.00;3.00;;;;;-146.67;100.00;57155.34;5002999;28;61934;-80
2022/08/08 09:49:58;;;;;;;;;3.00;3.00;;;;;-146.67;100.00;57155.34;5002186;28;61960;-80
2022/08/08 09:52:29;;;;;;;;;3.00;3.00;;;;;-146.67;100.00;57155.34;5003757;28;61933;-80
2022/08/08 09:54:55;;;;;;;;;3.00;2.75;;;;;-146.67;100.00;57155.34;5003765;28;61883;-80
2022/08/08 09:57:32;;;;;;;;;3.25;3.00;;;;;-146.67;100.00;57155.34;5001104;28;63768;-80
2022/08/08 09:59:59;;;;;;;;;4.00;2.75;;;;;-146.67;100.00;57155.34;5002002;28;62060;-80
2022/08/08 10:02:33;;;;;;;;;1.00;1.00;;;;;-146.67;100.00;57155.34;5002231;28;62018;-80
2022/08/08 10:05:15;;;;;;;;;3.25;3.25;;;;;-146.67;100.00;57155.34;5002323;28;61822;-80
2022/08/08 10:07:59;;;;;;;;;2.00;2.00;;;;;-146.67;100.00;57155.34;4984854;28;63702;-80
2022/08/08 10:10:29;;;;;;;;;4.25;3.50;;;;;-146.67;100.00;57155.34;5003118;28;61815;-80
2022/08/08 10:12:56;;;;;;;;;4.50;3.50;;;;;-146.67;100.00;57155.34;5001736;28;62063;-80
2022/08/08 10:15:23;;;;;;;;;2.50;2.50;;;;;-146.67;100.00;57155.34;5003459;28;62155;-80
2022/08/08 10:17:51;;;;;;;;;2.00;2.00;;;;;-146.67;100.00;57155.34;5002442;28;62036;-80
2022/08/08 10:20:17;;;;;;;;;2.50;2.50;;;;;-146.67;100.00;57155.34;4985423;28;61781;-80
2022/08/08 10:23:06;;;;;;;;;2.50;2.50;;;;;-146.67;100.00;57155.34;5001502;28;61928;-80
2022/08/08 10:25:33;;;;;;;;;3.75;3.75;;;;;-146.67;100.00;57155.34;5002486;28;62321;-80
2022/08/08 10:28:01;;;;;;;;;2.50;2.50;;;;;-146.67;100.00;57155.34;4984272;28;63625;-80
2022/08/08 10:30:26;;;;;;;;;3.75;3.25;;;;;-146.67;100.00;57155.34;5001755;28;61782;-80
2022/08/08 10:32:57;;;;;;;;;3.33;3.00;;;;;-146.67;100.00;57155.34;5002916;28;61853;-80
2022/08/08 10:35:26;;;;;;;;;4.00;4.00;;;;;-146.67;100.00;57155.34;5001844;28;61774;-80
2022/08/08 10:38:01;;;;;;;;;3.00;2.67;;;;;-146.67;100.00;57155.34;5000931;28;63736;-80
2022/08/08 10:40:29;;;;;;;;;5.00;2.33;;;;;-146.67;100.00;57155.34;5002615;28;61841;-80
2022/08/08 10:43:00;;;;;;;;;2.00;2.00;;;;;-146.67;100.00;57155.34;5002523;28;61810;-80
2022/08/08 10:45:26;;;;;;;;;2.67;2.67;;;;;-146.67;100.00;57155.34;5000426;28;62158;-82
2022/08/08 10:47:57;;;;;;;;;2.67;2.67;;;;;-146.67;100.00;57155.34;5002001;28;61880;-82
2022/08/08 10:50:34;;;;;;;;;4.00;2.00;;;;;-146.67;100.00;57155.34;5002385;28;61897;-81
2022/08/08 10:53:08;;;;;;;;;2.67;2.67;;;;;-146.67;100.00;57155.34;5001363;28;61778;-81
2022/08/08 10:55:36;;;;;;;;;3.67;2.33;;;;;-146.67;100.00;57155.34;5001139;28;62169;-81
2022/08/08 10:58:04;;;;;;;;;2.00;2.00;;;;;-146.67;100.00;57155.34;5000576;28;63488;-82
2022/08/08 11:00:31;;;;;;;;;5.00;3.67;;;;;-146.67;100.00;57155.34;5001096;28;61903;-82
2022/08/08 11:03:09;;;;;;;;;4.25;4.25;;;;;-146.67;100.00;57155.34;5001305;28;61952;-82
2022/08/08 11:05:42;;;;;;;;;3.00;2.00;;;;;-146.67;100.00;57155.34;5002911;28;62080;-82
2022/08/08 11:08:18;;;;;;;;;2.00;2.00;;;;;-146.67;100.00;57155.34;4983570;28;63643;-81
2022/08/08 11:10:43;;;;;;;;;3.33;1.00;;;;;-146.67;100.00;57155.34;4991965;28;62098;-81
2022/08/08 11:13:09;;;;;;;;;2.67;2.67;;;;;-146.67;100.00;57155.34;4989280;28;62149;-82
2022/08/08 11:15:34;;;;;;;;;3.00;3.00;;;;;-146.67;100.00;57155.34;4981586;28;61901;-81
2022/08/08 11:18:00;;;;;;;;;2.67;2.67;;;;;-146.67;100.00;57155.34;4981823;28;61864;-82
2022/08/08 11:20:27;;;;;;;;;2.33;2.33;;;;;-146.67;100.00;57155.34;4982822;28;61762;-81
2022/08/08 11:22:55;;;;;;;;;3.00;3.00;;;;;-146.67;100.00;57155.34;4981023;28;61747;-80
2022/08/08 11:25:31;;;;;;;;;3.67;3.67;;;;;-146.67;100.00;57155.34;4985399;28;61860;-80
2022/08/08 11:27:59;;;;;;;;;3.50;3.25;;;;;-146.67;100.00;57155.34;4983710;28;63995;-82
2022/08/08 11:30:29;;;;;;;;;3.00;2.50;;;;;-146.67;100.00;57155.34;4984582;28;61936;-82
2022/08/08 11:33:00;;;;;;;;;3.67;3.00;;;;;-146.67;100.00;57155.34;5002250;28;61796;-82
2022/08/08 11:35:27;;;;;;;;;3.67;3.67;;;;;-146.67;100.00;57155.34;5002471;28;61809;-81
2022/08/08 11:37:54;;;;;;;;;2.00;2.00;;;;;-146.67;100.00;57155.34;4999932;28;63082;-82
2022/08/08 11:40:20;;;;;;;;;2.67;1.33;;;;;-146.67;100.00;57155.34;5002056;28;61894;-82
2022/08/08 11:42:46;;;;;;;;;4.33;4.33;;;;;-146.67;100.00;57155.34;5000621;28;61793;-82
2022/08/08 11:45:12;;;;;;;;;4.33;3.33;;;;;-146.67;100.00;57155.34;5000972;28;61818;-80